sensor_id;sensor_type;location;lat;lon;timestamp;P1;durP1;ratioP1;P2;durP2;ratioP2
25169;SDS011;13129;48.012;10.352;2023-04-03T03:32:00;7.38;;;6.57;;
25169;SDS011;13129;48.012;10.352;2023-04-03T03:34:26;7.30;;;6.60;;
25169;SDS011;13129;48.012;10.352;2023-04-03T03:36:51;8.25;;;6.28;;
25169;SDS011;13129;48.012;10.352;2023-04-03T03:39:17;6.78;;;6.18;;
25169;SDS011;13129;48.012;10.352;2023-04-03T03:41:42;6.35;;;5.75;;
25169;SDS011;13129;48.012;10.352;2023-04-03T03:44:08;7.57;;;5.85;;
25169;SDS011;13129;48.012;10.352;2023-04-03T03:46:34;7.05;;;6.32;;
25169;SDS011;13129;48.012;10.352;2023-04-03T03:49:00;5.82;;;5.22;;
25169;SDS011;13129;48.012;10.352;2023-04-03T03:51:25;6.57;;;5.97;;
25169;SDS011;13129;48.012;10.352;2023-04-03T03:53:51;5.82;;;5.32;;
25169;SDS011;13129;48.012;10.352;2023-04-03T03:56:16;6.20;;;5.65;;
25169;SDS011;13129;48.012;10.352;2023-04-03T03:58:42;6.57;;;5.95;;
25169;SDS011;13129;48.012;10.352;2023-04-03T04:01:08;6.20;;;5.65;;
25169;SDS011;13129;48.012;10.352;2023-04-03T04:03:33;5.75;;;5.25;;
25169;SDS011;13129;48.012;10.352;2023-04-03T04:05:59;7.70;;;6.20;;
25169;SDS011;13129;48.012;10.352;2023-04-03T04:08:25;6.70;;;6.00;;
25169;SDS011;13129;48.012;10.352;2023-04-03T04:10:51;6.05;;;5.45;;
25169;SDS011;13129;48.012;10.352;2023-04-03T04:13:16;5.95;;;5.40;;
25169;SDS011;13129;48.012;10.352;2023-04-03T04:15:42;6.40;;;5.60;;
25169;SDS011;13129;48.012;10.352;2023-04-03T04:18:08;7.75;;;5.20;;
25169;SDS011;13129;48.012;10.352;2023-04-03T04:20:34;6.22;;;5.63;;
25169;SDS011;13129;48.012;10.352;2023-04-03T04:23:00;6.60;;;5.90;;
25169;SDS011;13129;48.012;10.352;2023-04-03T04:25:25;6.28;;;5.72;;
25169;SDS011;13129;48.012;10.352;2023-04-03T04:27:51;5.97;;;5.38;;
25169;SDS011;13129;48.012;10.352;2023-04-03T04:30:17;6.35;;;5.75;;
25169;SDS011;13129;48.012;10.352;2023-04-03T04:32:42;6.30;;;5.68;;
25169;SDS011;13129;48.012;10.352;2023-04-03T04:35:08;5.85;;;5.35;;
25169;SDS011;13129;48.012;10.352;2023-04-03T04:37:34;6.72;;;4.85;;
25169;SDS011;13129;48.012;10.352;2023-04-03T04:40:00;6.40;;;5.43;;
25169;SDS011;13129;48.012;10.352;2023-04-03T04:42:26;6.80;;;5.40;;
25169;SDS011;13129;48.012;10.352;2023-04-03T04:44:52;6.47;;;4.97;;
25169;SDS011;13129;48.012;10.352;2023-04-03T04:47:18;5.80;;;5.30;;
25169;SDS011;13129;48.012;10.352;2023-04-03T04:49:43;5.85;;;5.10;;
25169;SDS011;13129;48.012;10.352;2023-04-03T04:52:09;6.53;;;5.53;;
25169;SDS011;13129;48.012;10.352;2023-04-03T04:54:35;6.28;;;5.50;;
25169;SDS011;13129;48.012;10.352;2023-04-03T04:57:00;7.40;;;5.80;;
25169;SDS011;13129;48.012;10.352;2023-04-03T04:59:26;6.43;;;5.82;;
25169;SDS011;13129;48.012;10.352;2023-04-03T05:01:51;6.07;;;5.47;;
25169;SDS011;13129;48.012;10.352;2023-04-03T05:04:17;5.90;;;5.28;;
25169;SDS011;13129;48.012;10.352;2023-04-03T05:06:43;5.97;;;5.40;;
25169;SDS011;13129;48.012;10.352;2023-04-03T05:09:08;6.38;;;5.85;;
25169;SDS011;13129;48.012;10.352;2023-04-03T05:11:35;6.78;;;6.07;;
25169;SDS011;13129;48.012;10.352;2023-04-03T05:14:01;6.88;;;5.97;;
25169;SDS011;13129;48.012;10.352;2023-04-03T05:16:26;6.65;;;5.95;;
25169;SDS011;13129;48.012;10.352;2023-04-03T05:18:52;7.20;;;5.68;;
25169;SDS011;13129;48.012;10.352;2023-04-03T05:21:18;5.90;;;5.40;;
25169;SDS011;13129;48.012;10.352;2023-04-03T05:23:43;6.57;;;5.80;;
25169;SDS011;13129;48.012;10.352;2023-04-03T05:26:09;6.78;;;5.35;;
25169;SDS011;13129;48.012;10.352;2023-04-03T05:28:35;7.25;;;6.43;;
25169;SDS011;13129;48.012;10.352;2023-04-03T05:31:01;6.68;;;6.07;;
25169;SDS011;13129;48.012;10.352;2023-04-03T05:33:27;7.03;;;6.32;;
25169;SDS011;13129;48.012;10.352;2023-04-03T05:35:53;6.43;;;5.80;;
25169;SDS011;13129;48.012;10.352;2023-04-03T05:38:19;7.18;;;6.28;;
25169;SDS011;13129;48.012;10.352;2023-04-03T05:40:45;7.15;;;6.45;;
25169;SDS011;13129;48.012;10.352;2023-04-03T05:43:12;6.80;;;5.88;;
25169;SDS011;13129;48.012;10.352;2023-04-03T05:45:38;7.18;;;5.93;;
25169;SDS011;13129;48.012;10.352;2023-04-03T05:48:03;6.50;;;5.85;;
25169;SDS011;13129;48.012;10.352;2023-04-03T05:50:29;6.63;;;5.95;;
25169;SDS011;13129;48.012;10.352;2023-04-03T05:52:55;6.63;;;5.93;;
25169;SDS011;13129;48.012;10.352;2023-04-03T05:55:23;7.15;;;6.45;;
25169;SDS011;13129;48.012;10.352;2023-04-03T05:57:49;6.10;;;5.50;;
25169;SDS011;13129;48.012;10.352;2023-04-03T06:00:15;6.78;;;6.18;;
25169;SDS011;13129;48.012;10.352;2023-04-03T06:02:41;6.22;;;5.60;;
25169;SDS011;13129;48.012;10.352;2023-04-03T06:05:08;6.72;;;6.10;;
25169;SDS011;13129;48.012;10.352;2023-04-03T06:07:36;6.63;;;5.95;;
25169;SDS011;13129;48.012;10.352;2023-04-03T06:10:02;8.50;;;6.70;;
25169;SDS011;13129;48.012;10.352;2023-04-03T06:12:28;7.90;;;6.45;;
25169;SDS011;13129;48.012;10.352;2023-04-03T06:14:54;7.50;;;6.07;;
25169;SDS011;13129;48.012;10.352;2023-04-03T06:17:20;6.88;;;6.28;;
25169;SDS011;13129;48.012;10.352;2023-04-03T06:19:46;6.78;;;6.18;;
25169;SDS011;13129;48.012;10.352;2023-04-03T06:22:12;6.80;;;6.20;;
25169;SDS011;13129;48.012;10.352;2023-04-03T06:24:38;7.85;;;6.32;;
25169;SDS011;13129;48.012;10.352;2023-04-03T06:27:04;9.55;;;6.53;;
25169;SDS011;13129;48.012;10.352;2023-04-03T06:29:30;7.00;;;6.38;;
25169;SDS011;13129;48.012;10.352;2023-04-03T06:31:56;6.80;;;6.20;;
25169;SDS011;13129;48.012;10.352;2023-04-03T06:34:22;6.63;;;6.03;;
25169;SDS011;13129;48.012;10.352;2023-04-03T06:36:47;7.45;;;6.32;;
25169;SDS011;13129;48.012;10.352;2023-04-03T06:39:20;7.50;;;6.68;;
25169;SDS011;13129;48.012;10.352;2023-04-03T06:41:47;7.00;;;6.30;;
25169;SDS011;13129;48.012;10.352;2023-04-03T06:44:14;7.18;;;6.47;;
25169;SDS011;13129;48.012;10.352;2023-04-03T06:46:41;6.78;;;6.15;;
25169;SDS011;13129;48.012;10.352;2023-04-03T06:49:08;8.00;;;6.55;;
25169;SDS011;13129;48.012;10.352;2023-04-03T06:51:34;6.35;;;5.75;;
25169;SDS011;13129;48.012;10.352;2023-04-03T06:54:00;6.63;;;5.95;;
25169;SDS011;13129;48.012;10.352;2023-04-03T06:56:27;6.57;;;5.93;;
25169;SDS011;13129;48.012;10.352;2023-04-03T06:58:54;6.35;;;5.85;;
25169;SDS011;13129;48.012;10.352;2023-04-03T07:01:21;6.53;;;5.68;;
25169;SDS011;13129;48.012;10.352;2023-04-03T07:03:48;6.70;;;6.00;;
25169;SDS011;13129;48.012;10.352;2023-04-03T07:06:15;8.13;;;5.97;;
25169;SDS011;13129;48.012;10.352;2023-04-03T07:08:42;6.18;;;5.57;;
25169;SDS011;13129;48.012;10.352;2023-04-03T07:11:09;7.40;;;6.35;;
25169;SDS011;13129;48.012;10.352;2023-04-03T07:13:35;6.68;;;6.07;;
25169;SDS011;13129;48.012;10.352;2023-04-03T07:16:01;6.03;;;5.50;;
25169;SDS011;13129;48.012;10.352;2023-04-03T07:18:29;7.03;;;6.32;;
25169;SDS011;13129;48.012;10.352;2023-04-03T07:20:54;7.57;;;6.88;;
25169;SDS011;13129;48.012;10.352;2023-04-03T07:23:20;6.93;;;6.35;;
25169;SDS011;13129;48.012;10.352;2023-04-03T07:25:47;8.02;;;6.10;;
25169;SDS011;13129;48.012;10.352;2023-04-03T07:28:15;7.03;;;6.38;;
25169;SDS011;13129;48.012;10.352;2023-04-03T07:30:49;7.10;;;6.40;;
25169;SDS011;13129;48.012;10.352;2023-04-03T07:33:21;8.25;;;6.38;;
25169;SDS011;13129;48.012;10.352;2023-04-03T07:35:47;6.60;;;6.00;;
25169;SDS011;13129;48.012;10.352;2023-04-03T07:38:13;8.95;;;6.88;;
25169;SDS011;13129;48.012;10.352;2023-04-03T07:40:39;7.10;;;6.40;;
25169;SDS011;13129;48.012;10.352;2023-04-03T07:43:05;7.13;;;6.18;;
25169;SDS011;13129;48.012;10.352;2023-04-03T07:45:31;7.82;;;6.32;;
25169;SDS011;13129;48.012;10.352;2023-04-03T07:47:59;6.57;;;5.97;;
25169;SDS011;13129;48.012;10.352;2023-04-03T07:50:25;7.07;;;6.28;;
25169;SDS011;13129;48.012;10.352;2023-04-03T07:53:00;6.75;;;6.13;;
25169;SDS011;13129;48.012;10.352;2023-04-03T07:55:26;7.05;;;6.35;;
25169;SDS011;13129;48.012;10.352;2023-04-03T07:57:51;7.30;;;6.47;;
25169;SDS011;13129;48.012;10.352;2023-04-03T08:00:17;7.45;;;6.72;;
25169;SDS011;13129;48.012;10.352;2023-04-03T08:02:44;6.93;;;6.22;;
25169;SDS011;13129;48.012;10.352;2023-04-03T08:07:41;8.23;;;7.43;;
25169;SDS011;13129;48.012;10.352;2023-04-03T08:10:07;9.00;;;6.50;;
25169;SDS011;13129;48.012;10.352;2023-04-03T08:12:34;7.03;;;6.32;;
25169;SDS011;13129;48.012;10.352;2023-04-03T08:15:02;7.00;;;6.35;;
25169;SDS011;13129;48.012;10.352;2023-04-03T08:17:28;7.50;;;6.45;;
25169;SDS011;13129;48.012;10.352;2023-04-03T08:19:54;6.15;;;5.63;;
25169;SDS011;13129;48.012;10.352;2023-04-03T08:22:20;6.00;;;5.43;;
25169;SDS011;13129;48.012;10.352;2023-04-03T08:24:45;6.35;;;5.85;;
25169;SDS011;13129;48.012;10.352;2023-04-03T08:27:11;6.20;;;5.70;;
25169;SDS011;13129;48.012;10.352;2023-04-03T08:29:37;6.30;;;5.70;;
25169;SDS011;13129;48.012;10.352;2023-04-03T08:32:03;7.93;;;5.80;;
25169;SDS011;13129;48.012;10.352;2023-04-03T08:34:30;5.97;;;5.47;;
25169;SDS011;13129;48.012;10.352;2023-04-03T08:36:57;6.57;;;6.07;;
25169;SDS011;13129;48.012;10.352;2023-04-03T08:39:22;7.03;;;6.20;;
25169;SDS011;13129;48.012;10.352;2023-04-03T08:41:48;6.63;;;5.93;;
25169;SDS011;13129;48.012;10.352;2023-04-03T08:53:01;5.57;;;5.07;;
25169;SDS011;13129;48.012;10.352;2023-04-03T08:55:06;5.30;;;4.78;;
25169;SDS011;13129;48.012;10.352;2023-04-03T08:58:04;4.82;;;4.40;;
25169;SDS011;13129;48.012;10.352;2023-04-03T09:00:44;5.47;;;4.97;;
25169;SDS011;13129;48.012;10.352;2023-04-03T09:03:21;5.22;;;4.72;;
25169;SDS011;13129;48.012;10.352;2023-04-03T09:08:49;4.20;;;3.90;;
25169;SDS011;13129;48.012;10.352;2023-04-03T09:11:26;4.72;;;4.32;;
25169;SDS011;13129;48.012;10.352;2023-04-03T09:19:09;4.32;;;4.03;;
25169;SDS011;13129;48.012;10.352;2023-04-03T09:21:45;4.25;;;3.70;;
25169;SDS011;13129;48.012;10.352;2023-04-03T09:24:12;3.95;;;3.65;;
25169;SDS011;13129;48.012;10.352;2023-04-03T09:26:48;5.32;;;4.82;;
25169;SDS011;13129;48.012;10.352;2023-04-03T09:29:23;5.30;;;4.70;;
25169;SDS011;13129;48.012;10.352;2023-04-03T09:31:50;4.72;;;4.18;;
25169;SDS011;13129;48.012;10.352;2023-04-03T09:34:28;6.03;;;5.38;;
25169;SDS011;13129;48.012;10.352;2023-04-03T09:37:00;4.55;;;3.65;;
25169;SDS011;13129;48.012;10.352;2023-04-03T09:39:31;4.07;;;3.70;;
25169;SDS011;13129;48.012;10.352;2023-04-03T09:42:02;4.28;;;3.97;;
25169;SDS011;13129;48.012;10.352;2023-04-03T09:44:34;3.97;;;3.67;;
25169;SDS011;13129;48.012;10.352;2023-04-03T09:47:35;4.60;;;4.07;;
25169;SDS011;13129;48.012;10.352;2023-04-03T09:52:39;4.40;;;4.00;;
25169;SDS011;13129;48.012;10.352;2023-04-03T09:55:27;4.20;;;3.80;;
25169;SDS011;13129;48.012;10.352;2023-04-03T09:57:54;4.43;;;4.03;;
25169;SDS011;13129;48.012;10.352;2023-04-03T10:00:23;4.30;;;3.95;;
25169;SDS011;13129;48.012;10.352;2023-04-03T10:02:54;4.07;;;3.67;;
25169;SDS011;13129;48.012;10.352;2023-04-03T10:05:28;4.07;;;3.78;;
25169;SDS011;13129;48.012;10.352;2023-04-03T10:10:44;4.22;;;3.92;;
25169;SDS011;13129;48.012;10.352;2023-04-03T10:13:16;3.83;;;3.50;;
25169;SDS011;13129;48.012;10.352;2023-04-03T10:21:37;3.60;;;3.30;;
25169;SDS011;13129;48.012;10.352;2023-04-03T10:29:38;4.40;;;3.67;;
25169;SDS011;13129;48.012;10.352;2023-04-03T10:32:48;3.80;;;3.50;;
25169;SDS011;13129;48.012;10.352;2023-04-03T10:36:12;3.80;;;3.45;;
25169;SDS011;13129;48.012;10.352;2023-04-03T10:44:52;4.00;;;3.70;;
25169;SDS011;13129;48.012;10.352;2023-04-03T10:47:40;4.35;;;4.00;;
25169;SDS011;13129;48.012;10.352;2023-04-03T10:59:21;5.68;;;5.18;;
25169;SDS011;13129;48.012;10.352;2023-04-03T11:02:11;4.20;;;3.63;;
25169;SDS011;13129;48.012;10.352;2023-04-03T11:04:44;4.60;;;3.10;;
25169;SDS011;13129;48.012;10.352;2023-04-03T11:10:20;4.25;;;3.95;;
25169;SDS011;13129;48.012;10.352;2023-04-03T11:12:51;3.80;;;3.50;;
25169;SDS011;13129;48.012;10.352;2023-04-03T11:15:21;4.22;;;3.50;;
25169;SDS011;13129;48.012;10.352;2023-04-03T11:20:26;4.22;;;3.40;;
25169;SDS011;13129;48.012;10.352;2023-04-03T11:25:40;3.72;;;3.42;;
25169;SDS011;13129;48.012;10.352;2023-04-03T11:28:16;3.65;;;3.35;;
25169;SDS011;13129;48.012;10.352;2023-04-03T11:36:08;2.92;;;2.72;;
25169;SDS011;13129;48.012;10.352;2023-04-03T11:38:43;3.60;;;3.30;;
25169;SDS011;13129;48.012;10.352;2023-04-03T11:41:19;3.15;;;2.95;;
25169;SDS011;13129;48.012;10.352;2023-04-03T11:58:20;4.15;;;3.72;;
25169;SDS011;13129;48.012;10.352;2023-04-03T12:00:48;3.72;;;3.35;;
25169;SDS011;13129;48.012;10.352;2023-04-03T12:11:32;4.40;;;4.10;;
25169;SDS011;13129;48.012;10.352;2023-04-03T12:14:03;3.85;;;3.47;;
25169;SDS011;13129;48.012;10.352;2023-04-03T12:16:41;4.32;;;3.92;;
25169;SDS011;13129;48.012;10.352;2023-04-03T12:29:27;4.28;;;3.97;;
25169;SDS011;13129;48.012;10.352;2023-04-03T12:40:10;4.57;;;4.18;;
25169;SDS011;13129;48.012;10.352;2023-04-03T12:45:47;4.25;;;3.83;;
25169;SDS011;13129;48.012;10.352;2023-04-03T12:48:15;4.35;;;3.72;;
25169;SDS011;13129;48.012;10.352;2023-04-03T12:50:43;5.05;;;4.18;;
25169;SDS011;13129;48.012;10.352;2023-04-03T12:53:12;3.78;;;3.47;;
25169;SDS011;13129;48.012;10.352;2023-04-03T12:55:57;4.25;;;3.95;;
25169;SDS011;13129;48.012;10.352;2023-04-03T12:58:49;4.10;;;3.72;;
25169;SDS011;13129;48.012;10.352;2023-04-03T13:01:17;4.07;;;3.78;;
25169;SDS011;13129;48.012;10.352;2023-04-03T13:03:54;3.77;;;3.47;;
25169;SDS011;13129;48.012;10.352;2023-04-03T13:06:31;4.70;;;4.00;;
25169;SDS011;13129;48.012;10.352;2023-04-03T13:09:05;4.85;;;4.38;;
25169;SDS011;13129;48.012;10.352;2023-04-03T13:11:42;4.75;;;4.13;;
25169;SDS011;13129;48.012;10.352;2023-04-03T13:14:20;4.72;;;4.28;;
25169;SDS011;13129;48.012;10.352;2023-04-03T13:16:54;6.75;;;4.70;;
25169;SDS011;13129;48.012;10.352;2023-04-03T13:19:22;7.18;;;5.20;;
25169;SDS011;13129;48.012;10.352;2023-04-03T13:21:56;4.75;;;4.35;;
25169;SDS011;13129;48.012;10.352;2023-04-03T13:24:25;4.85;;;4.45;;
25169;SDS011;13129;48.012;10.352;2023-04-03T13:26:54;4.45;;;4.07;;
25169;SDS011;13129;48.012;10.352;2023-04-03T13:29:36;4.50;;;4.20;;
25169;SDS011;13129;48.012;10.352;2023-04-03T13:32:04;3.85;;;3.58;;
25169;SDS011;13129;48.012;10.352;2023-04-03T13:34:38;4.28;;;3.90;;
25169;SDS011;13129;48.012;10.352;2023-04-03T13:37:19;4.43;;;4.13;;
25169;SDS011;13129;48.012;10.352;2023-04-03T13:39:45;4.95;;;4.22;;
25169;SDS011;13129;48.012;10.352;2023-04-03T13:42:22;4.72;;;4.20;;
25169;SDS011;13129;48.012;10.352;2023-04-03T13:45:05;5.03;;;4.15;;
25169;SDS011;13129;48.012;10.352;2023-04-03T13:47:53;4.05;;;3.75;;
25169;SDS011;13129;48.012;10.352;2023-04-03T13:50:33;4.07;;;3.45;;
25169;SDS011;13129;48.012;10.352;2023-04-03T13:53:26;3.83;;;3.53;;
25169;SDS011;13129;48.012;10.352;2023-04-03T13:56:39;4.05;;;3.65;;
25169;SDS011;13129;48.012;10.352;2023-04-03T13:58:53;4.93;;;4.07;;
25169;SDS011;13129;48.012;10.352;2023-04-03T14:01:21;4.03;;;3.63;;
25169;SDS011;13129;48.012;10.352;2023-04-03T14:04:00;5.38;;;4.03;;
25169;SDS011;13129;48.012;10.352;2023-04-03T14:06:34;4.57;;;4.22;;
25169;SDS011;13129;48.012;10.352;2023-04-03T14:09:00;4.82;;;4.43;;
25169;SDS011;13129;48.012;10.352;2023-04-03T14:11:28;4.25;;;3.80;;
25169;SDS011;13129;48.012;10.352;2023-04-03T14:13:55;4.70;;;4.00;;
25169;SDS011;13129;48.012;10.352;2023-04-03T14:16:25;4.22;;;3.88;;
25169;SDS011;13129;48.012;10.352;2023-04-03T14:18:55;4.28;;;3.45;;
25169;SDS011;13129;48.012;10.352;2023-04-03T14:21:21;4.45;;;4.07;;
25169;SDS011;13129;48.012;10.352;2023-04-03T14:23:48;4.93;;;4.47;;
25169;SDS011;13129;48.012;10.352;2023-04-03T14:26:18;4.55;;;4.00;;
25169;SDS011;13129;48.012;10.352;2023-04-03T14:28:47;4.30;;;3.90;;
25169;SDS011;13129;48.012;10.352;2023-04-03T14:31:15;6.28;;;4.63;;
25169;SDS011;13129;48.012;10.352;2023-04-03T14:33:41;4.88;;;4.28;;
25169;SDS011;13129;48.012;10.352;2023-04-03T14:36:25;4.78;;;4.32;;
25169;SDS011;13129;48.012;10.352;2023-04-03T14:38:52;4.57;;;4.28;;
25169;SDS011;13129;48.012;10.352;2023-04-03T14:41:20;4.82;;;4.18;;
25169;SDS011;13129;48.012;10.352;2023-04-03T14:43:48;4.70;;;4.40;;
25169;SDS011;13129;48.012;10.352;2023-04-03T14:46:24;5.20;;;4.32;;
25169;SDS011;13129;48.012;10.352;2023-04-03T14:48:53;4.28;;;3.85;;
25169;SDS011;13129;48.012;10.352;2023-04-03T14:51:19;3.90;;;3.60;;
25169;SDS011;13129;48.012;10.352;2023-04-03T14:53:45;3.92;;;3.55;;
25169;SDS011;13129;48.012;10.352;2023-04-03T14:56:19;4.68;;;3.22;;
25169;SDS011;13129;48.012;10.352;2023-04-03T14:58:48;5.68;;;3.78;;
25169;SDS011;13129;48.012;10.352;2023-04-03T15:01:15;2.88;;;2.67;;
25169;SDS011;13129;48.012;10.352;2023-04-03T15:03:42;4.00;;;3.60;;
25169;SDS011;13129;48.012;10.352;2023-04-03T15:06:11;4.10;;;3.80;;
25169;SDS011;13129;48.012;10.352;2023-04-03T15:08:38;4.20;;;3.80;;
25169;SDS011;13129;48.012;10.352;2023-04-03T15:11:06;3.75;;;3.40;;
25169;SDS011;13129;48.012;10.352;2023-04-03T15:13:33;3.97;;;3.63;;
25169;SDS011;13129;48.012;10.352;2023-04-03T15:15:59;4.22;;;3.92;;
25169;SDS011;13129;48.012;10.352;2023-04-03T15:18:26;3.72;;;3.42;;
25169;SDS011;13129;48.012;10.352;2023-04-03T15:20:55;4.00;;;3.70;;
25169;SDS011;13129;48.012;10.352;2023-04-03T15:23:20;4.53;;;4.22;;
25169;SDS011;13129;48.012;10.352;2023-04-03T15:25:50;6.35;;;4.20;;
25169;SDS011;13129;48.012;10.352;2023-04-03T15:28:19;7.28;;;4.63;;
25169;SDS011;13129;48.012;10.352;2023-04-03T15:30:50;8.20;;;6.45;;
25169;SDS011;13129;48.012;10.352;2023-04-03T15:33:16;4.57;;;4.07;;
25169;SDS011;13129;48.012;10.352;2023-04-03T15:35:42;4.53;;;4.13;;
25169;SDS011;13129;48.012;10.352;2023-04-03T15:38:07;4.95;;;4.13;;
25169;SDS011;13129;48.012;10.352;2023-04-03T15:40:33;4.00;;;3.70;;
25169;SDS011;13129;48.012;10.352;2023-04-03T15:42:59;7.15;;;6.45;;
25169;SDS011;13129;48.012;10.352;2023-04-03T15:45:26;5.53;;;4.85;;
25169;SDS011;13129;48.012;10.352;2023-04-03T15:47:54;4.45;;;4.05;;
25169;SDS011;13129;48.012;10.352;2023-04-03T15:50:19;3.50;;;2.95;;
25169;SDS011;13129;48.012;10.352;2023-04-03T15:52:47;3.25;;;2.97;;
25169;SDS011;13129;48.012;10.352;2023-04-03T15:55:16;3.47;;;3.17;;
25169;SDS011;13129;48.012;10.352;2023-04-03T15:57:42;3.58;;;3.28;;
25169;SDS011;13129;48.012;10.352;2023-04-03T16:00:07;4.05;;;3.10;;
25169;SDS011;13129;48.012;10.352;2023-04-03T16:02:33;2.83;;;2.60;;
25169;SDS011;13129;48.012;10.352;2023-04-03T16:04:59;4.20;;;2.88;;
25169;SDS011;13129;48.012;10.352;2023-04-03T16:07:25;3.45;;;2.97;;
25169;SDS011;13129;48.012;10.352;2023-04-03T16:09:51;4.05;;;3.05;;
25169;SDS011;13129;48.012;10.352;2023-04-03T16:12:17;3.35;;;2.70;;
25169;SDS011;13129;48.012;10.352;2023-04-03T16:14:42;2.78;;;2.58;;
25169;SDS011;13129;48.012;10.352;2023-04-03T16:17:08;3.10;;;2.67;;
25169;SDS011;13129;48.012;10.352;2023-04-03T16:19:33;3.33;;;3.00;;
25169;SDS011;13129;48.012;10.352;2023-04-03T16:21:59;3.88;;;3.47;;
25169;SDS011;13129;48.012;10.352;2023-04-03T16:24:25;2.75;;;2.55;;
25169;SDS011;13129;48.012;10.352;2023-04-03T16:26:50;4.90;;;2.67;;
25169;SDS011;13129;48.012;10.352;2023-04-03T16:29:18;2.67;;;2.47;;
25169;SDS011;13129;48.012;10.352;2023-04-03T16:31:43;2.88;;;2.60;;
25169;SDS011;13129;48.012;10.352;2023-04-03T16:34:09;3.40;;;2.90;;
25169;SDS011;13129;48.012;10.352;2023-04-03T16:36:35;3.40;;;3.00;;
25169;SDS011;13129;48.012;10.352;2023-04-03T16:39:02;3.03;;;2.80;;
25169;SDS011;13129;48.012;10.352;2023-04-03T16:41:28;2.95;;;2.75;;
25169;SDS011;13129;48.012;10.352;2023-04-03T16:43:53;2.90;;;2.35;;
25169;SDS011;13129;48.012;10.352;2023-04-03T16:46:19;2.63;;;2.40;;
25169;SDS011;13129;48.012;10.352;2023-04-03T16:48:45;4.40;;;2.92;;
25169;SDS011;13129;48.012;10.352;2023-04-03T16:51:11;3.20;;;2.90;;
25169;SDS011;13129;48.012;10.352;2023-04-03T16:53:37;3.20;;;2.60;;
25169;SDS011;13129;48.012;10.352;2023-04-03T16:56:03;3.25;;;2.75;;
25169;SDS011;13129;48.012;10.352;2023-04-03T16:58:29;2.60;;;2.40;;
25169;SDS011;13129;48.012;10.352;2023-04-03T17:00:55;3.38;;;2.65;;
25169;SDS011;13129;48.012;10.352;2023-04-03T17:03:21;3.55;;;2.92;;
25169;SDS011;13129;48.012;10.352;2023-04-03T17:05:48;3.38;;;2.33;;
25169;SDS011;13129;48.012;10.352;2023-04-03T17:08:15;2.55;;;2.35;;
25169;SDS011;13129;48.012;10.352;2023-04-03T17:10:42;3.50;;;2.58;;
25169;SDS011;13129;48.012;10.352;2023-04-03T17:13:07;3.22;;;2.70;;
25169;SDS011;13129;48.012;10.352;2023-04-03T17:15:33;3.10;;;2.40;;
25169;SDS011;13129;48.012;10.352;2023-04-03T17:17:58;2.30;;;2.10;;
25169;SDS011;13129;48.012;10.352;2023-04-03T17:20:25;3.47;;;2.30;;
25169;SDS011;13129;48.012;10.352;2023-04-03T17:22:50;3.10;;;2.15;;
25169;SDS011;13129;48.012;10.352;2023-04-03T17:25:16;3.05;;;2.40;;
25169;SDS011;13129;48.012;10.352;2023-04-03T17:27:42;3.00;;;2.70;;
25169;SDS011;13129;48.012;10.352;2023-04-03T17:30:08;4.32;;;2.72;;
25169;SDS011;13129;48.012;10.352;2023-04-03T17:32:34;4.40;;;2.58;;
25169;SDS011;13129;48.012;10.352;2023-04-03T17:34:59;2.60;;;2.10;;
25169;SDS011;13129;48.012;10.352;2023-04-03T17:37:25;3.80;;;2.13;;
25169;SDS011;13129;48.012;10.352;2023-04-03T17:39:50;2.83;;;2.25;;
25169;SDS011;13129;48.012;10.352;2023-04-03T17:42:16;3.33;;;2.30;;
25169;SDS011;13129;48.012;10.352;2023-04-03T17:44:42;5.82;;;2.75;;
25169;SDS011;13129;48.012;10.352;2023-04-03T17:47:07;3.70;;;2.25;;
25169;SDS011;13129;48.012;10.352;2023-04-03T17:49:33;2.38;;;2.20;;
25169;SDS011;13129;48.012;10.352;2023-04-03T17:51:59;2.90;;;2.60;;
25169;SDS011;13129;48.012;10.352;2023-04-03T17:54:24;3.53;;;2.60;;
25169;SDS011;13129;48.012;10.352;2023-04-03T17:56:50;3.45;;;2.95;;
25169;SDS011;13129;48.012;10.352;2023-04-03T17:59:16;3.38;;;3.08;;
25169;SDS011;13129;48.012;10.352;2023-04-03T18:01:42;3.10;;;2.50;;
25169;SDS011;13129;48.012;10.352;2023-04-03T18:04:12;3.72;;;2.90;;
25169;SDS011;13129;48.012;10.352;2023-04-03T18:06:39;2.67;;;2.47;;
25169;SDS011;13129;48.012;10.352;2023-04-03T18:09:12;2.20;;;2.00;;
25169;SDS011;13129;48.012;10.352;2023-04-03T18:11:42;2.70;;;2.20;;
25169;SDS011;13129;48.012;10.352;2023-04-03T18:14:09;3.13;;;2.83;;
25169;SDS011;13129;48.012;10.352;2023-04-03T18:16:37;2.58;;;2.30;;
25169;SDS011;13129;48.012;10.352;2023-04-03T18:19:02;4.38;;;2.10;;
25169;SDS011;13129;48.012;10.352;2023-04-03T18:21:28;3.20;;;2.42;;
25169;SDS011;13129;48.012;10.352;2023-04-03T18:23:54;2.50;;;2.30;;
25169;SDS011;13129;48.012;10.352;2023-04-03T18:26:21;2.53;;;2.10;;
25169;SDS011;13129;48.012;10.352;2023-04-03T18:28:52;2.42;;;2.20;;
25169;SDS011;13129;48.012;10.352;2023-04-03T18:31:21;3.08;;;2.03;;
25169;SDS011;13129;48.012;10.352;2023-04-03T18:33:47;2.60;;;2.40;;
25169;SDS011;13129;48.012;10.352;2023-04-03T18:36:13;4.00;;;2.40;;
25169;SDS011;13129;48.012;10.352;2023-04-03T18:38:39;2.85;;;2.20;;
25169;SDS011;13129;48.012;10.352;2023-04-03T18:41:05;2.95;;;2.30;;
25169;SDS011;13129;48.012;10.352;2023-04-03T18:43:34;2.42;;;2.20;;
25169;SDS011;13129;48.012;10.352;2023-04-03T18:46:00;2.08;;;1.88;;
25169;SDS011;13129;48.012;10.352;2023-04-03T18:48:26;4.00;;;2.30;;
25169;SDS011;13129;48.012;10.352;2023-04-03T18:50:53;2.53;;;2.20;;
25169;SDS011;13129;48.012;10.352;2023-04-03T18:53:20;2.67;;;2.30;;
25169;SDS011;13129;48.012;10.352;2023-04-03T18:55:47;2.70;;;2.45;;
25169;SDS011;13129;48.012;10.352;2023-04-03T18:58:14;2.95;;;2.65;;
25169;SDS011;13129;48.012;10.352;2023-04-03T19:00:40;3.28;;;2.60;;
25169;SDS011;13129;48.012;10.352;2023-04-03T19:03:06;3.03;;;2.38;;
25169;SDS011;13129;48.012;10.352;2023-04-03T19:05:32;3.40;;;2.30;;
25169;SDS011;13129;48.012;10.352;2023-04-03T19:07:58;3.47;;;2.40;;
25169;SDS011;13129;48.012;10.352;2023-04-03T19:10:24;4.35;;;2.42;;
25169;SDS011;13129;48.012;10.352;2023-04-03T19:12:51;2.30;;;2.05;;
25169;SDS011;13129;48.012;10.352;2023-04-03T19:15:18;4.13;;;2.35;;
25169;SDS011;13129;48.012;10.352;2023-04-03T19:17:45;2.80;;;2.45;;
25169;SDS011;13129;48.012;10.352;2023-04-03T19:20:11;2.65;;;2.45;;
25169;SDS011;13129;48.012;10.352;2023-04-03T19:22:37;2.40;;;2.15;;
25169;SDS011;13129;48.012;10.352;2023-04-03T19:25:04;3.20;;;2.45;;
25169;SDS011;13129;48.012;10.352;2023-04-03T19:27:31;2.50;;;2.30;;
25169;SDS011;13129;48.012;10.352;2023-04-03T19:29:58;3.80;;;2.50;;
25169;SDS011;13129;48.012;10.352;2023-04-03T19:32:24;4.10;;;2.45;;
25169;SDS011;13129;48.012;10.352;2023-04-03T19:34:50;4.90;;;2.70;;
25169;SDS011;13129;48.012;10.352;2023-04-03T19:37:16;2.97;;;2.33;;
25169;SDS011;13129;48.012;10.352;2023-04-03T19:39:42;3.13;;;2.47;;
25169;SDS011;13129;48.012;10.352;2023-04-03T19:42:08;5.25;;;2.58;;
25169;SDS011;13129;48.012;10.352;2023-04-03T19:44:34;2.80;;;2.60;;
25169;SDS011;13129;48.012;10.352;2023-04-03T19:47:01;3.47;;;2.30;;
25169;SDS011;13129;48.012;10.352;2023-04-03T19:49:28;2.65;;;2.25;;
25169;SDS011;13129;48.012;10.352;2023-04-03T19:51:53;4.13;;;2.45;;
25169;SDS011;13129;48.012;10.352;2023-04-03T19:54:20;2.80;;;2.38;;
25169;SDS011;13129;48.012;10.352;2023-04-03T19:56:46;4.85;;;2.35;;
25169;SDS011;13129;48.012;10.352;2023-04-03T19:59:12;2.45;;;2.25;;
25169;SDS011;13129;48.012;10.352;2023-04-03T20:01:38;2.63;;;2.13;;